Alburgh, Vermont
Current Conditions -  °F | °C
As of 1:55 PM on Friday 28 Nov 2014 (Local Time) from KFSO Reporting Station
Light Snow Light Snow  
Wind Chill: 18°   Ceiling: 3100
Heat Index: 25°   Visibility: 10mi
Dew Point: 16°   Wind: 6mph
Humidity: 71%   Direction: 290°WNW
Pressure: 30.1"   Gusts: NA
Location:  44.98°N, 73.3°W
Report Text: KFSO 281755Z AUTO 29005KT 10SM -SN SCT022 OVC031 M04/M09 A3010 RMK AO2 T10411087 11030 21050
Loading
Personal Weather Stations






























Interactive Weather Map New forecast layout! Learn more

10-Day Weather Forecast

Advertisements
Track Severe Weather on mobile